Погода Марынинна неделю

Куявско-Поморское воеводство, Польша

19 - 25 июля
  • 19июля
    Сегодня
    +14°
    +26°
    Облачно с прояснениями
    ВремяПогодаТемператураВлажностьДавлениеВетер, м/сВероятность осадков
    02:00Облачно с прояснениями+15°C95 %757 мм1.4 м/с2 %
    05:00Ясно и безоблачно+14°C97 %757 мм1.2 м/с2 %
    08:00Ясно и безоблачно+19°C78 %757 мм1.6 м/с2 %
    11:00Небольшая облачность+23°C57 %757 мм3.5 м/с1 %
    14:00Облачно с прояснениями+25°C51 %756 мм4.2 м/с2 %
    17:00Облачно с прояснениями+26°C50 %755 мм4.0 м/с2 %
    20:00Ясно и безоблачно+24°C67 %754 мм3.2 м/с2 %
    23:00Ясно и безоблачно+18°C82 %753 мм1.6 м/с2 %
  • 20июля
    Суббота
    +14°
    +28°
    Ясно и безоблачно
    ВремяПогодаТемператураВлажностьДавлениеВетер, м/сВероятность осадков
    02:00Практически безоблачно+15°C92 %753 мм1.2 м/с2 %
    05:00Небольшая облачность+14°C96 %752 мм1.4 м/с2 %
    08:00Ясно и безоблачно+20°C74 %752 мм1.7 м/с2 %
    11:00Ясно и безоблачно+24°C57 %751 мм2.3 м/с2 %
    14:00Ясно и безоблачно+27°C43 %751 мм3.2 м/с2 %
    17:00Ясно и безоблачно+27°C39 %750 мм3.4 м/с2 %
    20:00Ясно и безоблачно+25°C60 %749 мм3.1 м/с2 %
    23:00Ясно и безоблачно+19°C74 %748 мм1.8 м/с2 %
  • 21июля
    Воскресенье
    +16°
    +29°
    Практически безоблачно
    ВремяПогодаТемператураВлажностьДавлениеВетер, м/сВероятность осадков
    02:00Ясно и безоблачно+16°C91 %748 мм1.8 м/с2 %
    05:00Ясно и безоблачно+15°C94 %748 мм1.7 м/с2 %
    08:00Ясно и безоблачно+20°C75 %748 мм2.2 м/с2 %
    11:00Ясно и безоблачно+26°C51 %748 мм2.8 м/с2 %
    14:00Практически безоблачно+29°C44 %748 мм3.4 м/с2 %
    17:00Небольшая облачность+29°C40 %747 мм4.1 м/с2 %
    20:00Ясно и безоблачно+26°C53 %746 мм3.7 м/с2 %
    23:00Облачно с прояснениями+20°C65 %747 мм2.5 м/с2 %
  • 22июля
    Понедельник
    +14°
    +31°
    Облачно с прояснениями
    ВремяПогодаТемператураВлажностьДавлениеВетер, м/сВероятность осадков
    02:00Ясно и безоблачно+17°C81 %747 мм2.0 м/с2 %
    05:00Ясно и безоблачно+16°C88 %747 мм2.4 м/с2 %
    08:00Ясно и безоблачно+21°C71 %747 мм2.5 м/с7 %
    11:00Практически безоблачно+27°C48 %748 мм2.6 м/с26 %
    14:00Облачно с прояснениями+30°C37 %747 мм3.5 м/с40 %
    17:00Пасмурно, небольшой дождь+27°C64 %748 мм5.8 м/с50 %
    20:00Пасмурно, дождь+22°C91 %749 мм3.9 м/с43 %
    23:00Небольшая облачность и лёгкий дождик+20°C94 %750 мм2.0 м/с25 %
  • 23июля
    Вторник
    +14°
    +24°
    Ясно и безоблачно
    ВремяПогодаТемператураВлажностьДавлениеВетер, м/сВероятность осадков
    02:00Практически безоблачно+17°C94 %751 мм2.6 м/с21 %
    05:00Небольшая облачность+15°C95 %751 мм2.7 м/с18 %
    08:00Практически безоблачно+18°C82 %752 мм3.5 м/с25 %
    11:00Ясно и безоблачно+21°C61 %752 мм3.9 м/с31 %
    14:00Ясно и безоблачно+23°C50 %752 мм4.4 м/с44 %
    17:00Ясно и безоблачно+24°C46 %751 мм3.9 м/с36 %
    20:00Ясно и безоблачно+22°C66 %751 мм2.8 м/с29 %
    23:00Ясно и безоблачно+17°C70 %751 мм1.7 м/с18 %
Мы используем cookies
Соглашаюсь